createdAt,value
2022-08-06T00:00:07.854Z,100401.36
2022-08-06T00:03:00.207Z,100400.42
2022-08-06T00:05:34.936Z,100405.44
2022-08-06T00:08:06.285Z,100408.99
2022-08-06T00:10:35.483Z,100409.11
2022-08-06T00:13:05.417Z,100421.98
2022-08-06T00:16:09.134Z,100419.48
2022-08-06T00:18:24.290Z,100424.57
2022-08-06T00:20:53.628Z,100421.09
2022-08-06T00:23:23.609Z,100426.64
2022-08-06T00:25:54.654Z,100428.95
2022-08-06T00:28:30.625Z,100432.96
2022-08-06T00:31:06.122Z,100436.98
2022-08-06T00:33:44.388Z,100434.71
2022-08-06T00:36:24.859Z,100435.22
2022-08-06T00:38:53.813Z,100439.34
2022-08-06T00:41:27.110Z,100441.80
2022-08-06T00:43:59.910Z,100440.52
2022-08-06T00:46:31.012Z,100447.48
2022-08-06T00:48:59.319Z,100453.71
2022-08-06T00:51:51.463Z,100463.17
2022-08-06T00:54:28.934Z,100467.62
2022-08-06T00:57:08.003Z,100470.45
2022-08-06T00:59:40.662Z,100469.48
2022-08-06T01:02:14.550Z,100467.40
2022-08-06T01:04:43.388Z,100463.99
2022-08-06T01:07:12.099Z,100464.88
2022-08-06T01:09:46.071Z,100463.04
2022-08-06T01:12:33.405Z,100461.08
2022-08-06T01:15:16.255Z,100463.36
2022-08-06T01:18:01.567Z,100465.27
2022-08-06T01:21:56.515Z,100462.41
2022-08-06T01:23:59.118Z,100457.98
2022-08-06T01:26:54.408Z,100455.89
2022-08-06T01:29:36.166Z,100459.12
2022-08-06T01:32:09.509Z,100474.05
2022-08-06T01:34:47.345Z,100478.07
2022-08-06T01:37:38.890Z,100478.52
2022-08-06T01:40:14.229Z,100479.98
2022-08-06T01:42:45.765Z,100481.44
2022-08-06T01:45:42.369Z,100486.75
2022-08-06T01:48:28.888Z,100500.91
2022-08-06T01:51:02.928Z,100506.30
2022-08-06T01:54:05.998Z,100510.14
2022-08-06T01:56:30.875Z,100511.73
2022-08-06T01:59:04.452Z,100518.80
2022-08-06T02:01:53.422Z,100518.67
2022-08-06T02:04:28.927Z,100519.45
2022-08-06T02:07:00.545Z,100521.84
2022-08-06T02:09:37.835Z,100518.73
2022-08-06T02:12:17.371Z,100524.05
2022-08-06T02:15:04.071Z,100526.58
2022-08-06T02:18:04.357Z,100527.98
2022-08-06T02:20:37.014Z,100531.74
2022-08-06T02:23:10.537Z,100535.59
2022-08-06T02:25:41.648Z,100544.44
2022-08-06T02:28:25.173Z,100551.48
2022-08-06T02:30:56.704Z,100542.95
2022-08-06T02:34:01.056Z,100555.09
2022-08-06T02:36:27.259Z,100560.80
2022-08-06T02:39:08.354Z,100547.98
2022-08-06T02:41:55.964Z,100556.91
2022-08-06T02:44:35.026Z,100549.16
2022-08-06T02:47:17.980Z,100539.97
2022-08-06T02:49:57.811Z,100538.70
2022-08-06T02:52:56.470Z,100531.37
2022-08-06T02:55:35.640Z,100539.38
2022-08-06T02:58:19.011Z,100545.94
2022-08-06T03:00:51.944Z,100553.14
2022-08-06T03:03:34.529Z,100547.08
2022-08-06T03:06:07.388Z,100547.64
2022-08-06T03:08:38.836Z,100557.09
2022-08-06T03:11:08.731Z,100560.67
2022-08-06T03:13:39.058Z,100563.48
2022-08-06T03:16:23.692Z,100568.00
2022-08-06T03:19:53.939Z,100576.56
2022-08-06T03:21:55.538Z,100575.90
2022-08-06T03:24:27.785Z,100586.05
2022-08-06T03:27:00.145Z,100590.91
2022-08-06T03:29:30.246Z,100594.58
2022-08-06T03:32:24.761Z,100599.58
2022-08-06T03:34:52.141Z,100586.60
2022-08-06T03:37:45.459Z,100580.84
2022-08-06T03:40:12.672Z,100593.29
2022-08-06T03:42:43.996Z,100598.24
2022-08-06T03:45:35.436Z,100607.73
2022-08-06T03:48:07.015Z,100615.63
2022-08-06T03:50:43.032Z,100615.77
2022-08-06T03:53:25.048Z,100617.55
2022-08-06T03:55:59.542Z,100629.85
2022-08-06T03:58:29.464Z,100629.86
2022-08-06T04:01:04.684Z,100636.32
2022-08-06T04:03:39.693Z,100641.48
2022-08-06T04:06:16.097Z,100640.77
2022-08-06T04:08:46.269Z,100640.44
2022-08-06T04:12:14.194Z,100648.73
2022-08-06T04:14:08.531Z,100653.29
2022-08-06T04:16:38.164Z,100658.30
2022-08-06T04:19:15.631Z,100652.00
2022-08-06T04:23:05.283Z,100643.64
2022-08-06T04:24:33.547Z,100655.83
2022-08-06T04:27:09.427Z,100665.84
2022-08-06T04:29:56.900Z,100665.40
2022-08-06T04:32:32.289Z,100686.59
2022-08-06T04:36:05.831Z,100681.08
2022-08-06T04:37:54.295Z,100679.71
2022-08-06T04:40:34.345Z,100680.63
2022-08-06T04:43:08.686Z,100678.73
2022-08-06T04:46:18.586Z,100690.21
2022-08-06T04:48:40.062Z,100689.77
2022-08-06T04:51:10.450Z,100693.70
2022-08-06T04:53:58.203Z,100689.47
2022-08-06T04:56:29.863Z,100694.96
2022-08-06T04:59:07.652Z,100699.48
2022-08-06T05:01:40.840Z,100700.80
2022-08-06T05:04:26.526Z,100702.95
2022-08-06T05:07:17.172Z,100709.44
2022-08-06T05:09:54.279Z,100706.68
2022-08-06T05:12:39.398Z,100709.54
2022-08-06T05:15:10.950Z,100713.56
2022-08-06T05:17:58.041Z,100718.05
2022-08-06T05:20:32.111Z,100718.09
2022-08-06T05:23:20.054Z,100727.54
2022-08-06T05:25:53.595Z,100740.05
2022-08-06T05:28:27.193Z,100742.73
2022-08-06T05:30:56.640Z,100737.58
2022-08-06T05:33:38.795Z,100738.42
2022-08-06T05:36:19.337Z,100740.02
2022-08-06T05:38:58.552Z,100744.27
2022-08-06T05:41:33.227Z,100751.33
2022-08-06T05:44:03.186Z,100748.14
2022-08-06T05:46:38.492Z,100747.30
2022-08-06T05:49:58.241Z,100751.95
2022-08-06T05:52:35.956Z,100758.89
2022-08-06T05:55:11.456Z,100766.13
2022-08-06T05:57:53.895Z,100762.88
2022-08-06T06:00:42.265Z,100765.55
2022-08-06T06:03:25.116Z,100768.77
2022-08-06T06:06:15.926Z,100768.73
2022-08-06T06:08:58.860Z,100770.58
2022-08-06T06:11:55.166Z,100772.15
2022-08-06T06:14:32.282Z,100772.55
2022-08-06T06:17:39.800Z,100769.50
2022-08-06T06:21:03.910Z,100771.45
2022-08-06T06:23:20.334Z,100774.11
2022-08-06T06:26:00.959Z,100776.73
2022-08-06T06:28:47.953Z,100783.23
2022-08-06T06:31:58.368Z,100786.98
2022-08-06T06:34:55.544Z,100789.70
2022-08-06T06:37:47.656Z,100792.86
2022-08-06T06:40:34.700Z,100799.13
2022-08-06T06:43:17.665Z,100808.13
2022-08-06T06:46:05.365Z,100810.15
2022-08-06T06:48:47.983Z,100805.61
2022-08-06T06:51:57.092Z,100812.21
2022-08-06T06:54:37.822Z,100819.50
2022-08-06T06:57:10.821Z,100817.98
2022-08-06T07:00:01.516Z,100822.14
2022-08-06T07:02:35.805Z,100818.14
2022-08-06T07:05:07.504Z,100813.58
2022-08-06T07:07:39.537Z,100808.50
2022-08-06T07:10:11.609Z,100811.30
2022-08-06T07:12:43.647Z,100807.00
2022-08-06T07:15:18.917Z,100809.98
2022-08-06T07:17:50.634Z,100810.04
2022-08-06T07:20:31.366Z,100811.96
2022-08-06T07:24:08.476Z,100808.26
2022-08-06T07:25:55.769Z,100814.86
2022-08-06T07:28:27.946Z,100822.27
2022-08-06T07:31:04.478Z,100825.94
2022-08-06T07:34:01.002Z,100834.52
2022-08-06T07:36:37.868Z,100836.02
2022-08-06T07:39:14.400Z,100835.97
2022-08-06T07:42:07.707Z,100841.61
2022-08-06T07:44:54.600Z,100847.32
2022-08-06T07:47:46.967Z,100852.56
2022-08-06T07:50:26.863Z,100863.70
2022-08-06T07:52:57.138Z,100864.46
2022-08-06T07:55:36.825Z,100868.39
2022-08-06T07:58:09.598Z,100868.81
2022-08-06T08:00:41.167Z,100875.97
2022-08-06T08:03:57.020Z,100886.20
2022-08-06T08:06:26.999Z,100897.70
2022-08-06T08:08:59.953Z,100899.88
2022-08-06T08:11:37.612Z,100896.95
2022-08-06T08:14:22.128Z,100895.30
2022-08-06T08:16:51.693Z,100900.27
2022-08-06T08:19:23.608Z,100903.31
2022-08-06T08:21:52.835Z,100902.97
2022-08-06T08:24:21.221Z,100908.89
2022-08-06T08:27:04.909Z,100911.48
2022-08-06T08:29:39.802Z,100916.04
2022-08-06T08:32:20.496Z,100918.82
2022-08-06T08:34:52.851Z,100922.08
2022-08-06T08:37:22.023Z,100930.66
2022-08-06T08:39:50.795Z,100929.91
2022-08-06T08:42:41.000Z,100933.42
2022-08-06T08:45:13.378Z,100930.80
2022-08-06T08:47:57.861Z,100935.48
2022-08-06T08:50:30.852Z,100941.58
2022-08-06T08:53:05.471Z,100942.19
2022-08-06T08:57:01.973Z,100941.30
2022-08-06T08:59:01.992Z,100947.86
2022-08-06T09:01:53.312Z,100945.49
2022-08-06T09:04:04.885Z,100953.41
2022-08-06T09:06:39.633Z,100960.92
2022-08-06T09:09:16.161Z,100965.20
2022-08-06T09:12:03.752Z,100968.81
2022-08-06T09:14:34.379Z,100972.58
2022-08-06T09:17:05.471Z,100973.80
2022-08-06T09:19:42.000Z,100968.02
2022-08-06T09:22:11.842Z,100970.48
2022-08-06T09:24:40.523Z,100974.13
2022-08-06T09:27:55.006Z,100977.16
2022-08-06T09:30:25.443Z,100976.31
2022-08-06T09:32:57.731Z,100979.23
2022-08-06T09:35:45.042Z,100984.61
2022-08-06T09:38:18.105Z,100986.73
2022-08-06T09:41:07.181Z,100986.37
2022-08-06T09:44:02.771Z,100988.63
2022-08-06T09:46:42.197Z,100995.12
2022-08-06T09:49:48.082Z,100990.14
2022-08-06T09:52:17.789Z,101002.73
2022-08-06T09:54:52.745Z,101002.88
2022-08-06T09:57:36.346Z,101003.95
2022-08-06T10:00:14.664Z,101015.47
2022-08-06T10:02:51.327Z,101018.77
2022-08-06T10:05:21.522Z,101026.95
2022-08-06T10:08:05.883Z,101027.86
2022-08-06T10:10:50.358Z,101026.35
2022-08-06T10:13:39.119Z,101033.41
2022-08-06T10:16:28.905Z,101042.84
2022-08-06T10:19:18.944Z,101053.48
2022-08-06T10:21:50.835Z,101064.83
2022-08-06T10:24:25.396Z,101064.68
2022-08-06T10:26:55.704Z,101070.34
2022-08-06T10:29:26.286Z,101072.52
2022-08-06T10:31:56.905Z,101082.61
2022-08-06T10:34:31.279Z,101082.56
2022-08-06T10:37:47.352Z,101083.39
2022-08-06T10:40:07.555Z,101083.23
2022-08-06T10:42:40.961Z,101080.55
2022-08-06T10:45:16.194Z,101075.55
2022-08-06T10:49:01.552Z,101075.04
2022-08-06T10:50:52.437Z,101067.78
2022-08-06T10:54:01.451Z,101054.60
2022-08-06T10:56:18.179Z,101060.84
2022-08-06T10:58:54.908Z,101066.23
2022-08-06T11:01:47.013Z,101062.27
2022-08-06T11:04:39.330Z,101064.48
2022-08-06T11:08:09.249Z,101068.98
2022-08-06T11:10:40.358Z,101070.71
2022-08-06T11:13:37.587Z,101063.40
2022-08-06T11:16:29.884Z,101061.75
2022-08-06T11:19:06.805Z,101062.66
2022-08-06T11:21:58.882Z,101064.92
2022-08-06T11:24:34.246Z,101060.58
2022-08-06T11:27:50.290Z,101068.77
2022-08-06T11:30:26.235Z,101065.40
2022-08-06T11:32:55.469Z,101053.10
2022-08-06T11:35:47.385Z,101054.95
2022-08-06T11:38:56.669Z,101049.27
2022-08-06T11:41:50.565Z,101050.63
2022-08-06T11:44:34.374Z,101044.88
2022-08-06T11:47:07.769Z,101046.00
2022-08-06T11:49:43.866Z,101050.26
2022-08-06T11:52:34.340Z,101053.71
2022-08-06T11:55:12.839Z,101058.38
2022-08-06T11:58:21.256Z,101048.39
2022-08-06T12:01:03.958Z,101052.85
2022-08-06T12:03:52.294Z,101053.94
2022-08-06T12:06:25.899Z,101055.59
2022-08-06T12:09:23.414Z,101056.63
2022-08-06T12:12:26.549Z,101053.65
2022-08-06T12:14:57.144Z,101062.84
2022-08-06T12:17:44.899Z,101054.70
2022-08-06T12:20:39.174Z,101060.76
2022-08-06T12:23:17.603Z,101052.57
2022-08-06T12:25:48.535Z,101056.74
2022-08-06T12:28:21.680Z,101052.89
2022-08-06T12:30:55.085Z,101055.23
2022-08-06T12:33:24.840Z,101062.50
2022-08-06T12:36:02.069Z,101055.13
2022-08-06T12:38:32.983Z,101054.59
2022-08-06T12:41:11.038Z,101061.58
2022-08-06T12:43:56.844Z,101062.09
2022-08-06T12:46:29.689Z,101063.63
2022-08-06T12:49:01.374Z,101062.57
2022-08-06T12:51:30.219Z,101068.69
2022-08-06T12:54:02.216Z,101067.10
2022-08-06T12:56:37.449Z,101066.90
2022-08-06T12:59:16.126Z,101067.61
2022-08-06T13:02:11.827Z,101068.99
2022-08-06T13:04:47.794Z,101069.70
2022-08-06T13:07:20.348Z,101071.83
2022-08-06T13:10:34.862Z,101068.73
2022-08-06T13:14:15.039Z,101066.80
2022-08-06T13:16:12.054Z,101066.23
2022-08-06T13:19:19.534Z,101060.09
2022-08-06T13:22:00.529Z,101067.73
2022-08-06T13:24:30.611Z,101070.08
2022-08-06T13:26:59.935Z,101075.04
2022-08-06T13:30:34.710Z,101069.70
2022-08-06T13:32:32.637Z,101070.27
2022-08-06T13:35:16.949Z,101069.79
2022-08-06T13:37:57.089Z,101077.33
2022-08-06T13:40:47.426Z,101067.79
2022-08-06T13:43:39.331Z,101074.17
2022-08-06T13:46:27.457Z,101076.81
2022-08-06T13:49:02.040Z,101073.42
2022-08-06T13:51:34.532Z,101079.04
2022-08-06T13:54:16.367Z,101080.83
2022-08-06T13:56:52.145Z,101081.11
2022-08-06T13:59:24.501Z,101076.98
2022-08-06T14:02:11.852Z,101087.70
2022-08-06T14:04:40.868Z,101094.86
2022-08-06T14:07:18.116Z,101100.76
2022-08-06T14:10:09.381Z,101089.06
2022-08-06T14:12:34.944Z,101092.23
2022-08-06T14:15:03.769Z,101096.98
2022-08-06T14:17:35.167Z,101087.51
2022-08-06T14:20:15.036Z,101092.83
2022-08-06T14:22:48.322Z,101094.21
2022-08-06T14:25:18.025Z,101093.08
2022-08-06T14:27:46.313Z,101093.69
2022-08-06T14:30:27.224Z,101095.96
2022-08-06T14:33:10.842Z,101095.29
2022-08-06T14:35:51.091Z,101106.67
2022-08-06T14:38:21.800Z,101101.41
2022-08-06T14:41:51.077Z,101101.11
2022-08-06T14:44:29.990Z,101100.13
2022-08-06T14:46:59.675Z,101106.90
2022-08-06T14:49:45.686Z,101101.71
2022-08-06T14:52:18.900Z,101099.61
2022-08-06T14:54:55.905Z,101106.81
2022-08-06T14:57:56.598Z,101101.09
2022-08-06T15:00:34.849Z,101104.05
2022-08-06T15:03:07.469Z,101105.39
2022-08-06T15:05:41.902Z,101113.45
2022-08-06T15:08:25.190Z,101112.09
2022-08-06T15:10:53.875Z,101111.27
2022-08-06T15:13:36.736Z,101120.18
2022-08-06T15:16:10.913Z,101125.20
2022-08-06T15:19:30.299Z,101123.95
2022-08-06T15:21:51.071Z,101122.50
2022-08-06T15:24:25.303Z,101134.42
2022-08-06T15:26:56.053Z,101127.67
2022-08-06T15:29:34.639Z,101132.23
2022-08-06T15:32:16.987Z,101131.28
2022-08-06T15:34:48.853Z,101129.00
2022-08-06T15:37:53.269Z,101131.77
2022-08-06T15:40:10.022Z,101135.70
2022-08-06T15:42:41.785Z,101131.39
2022-08-06T15:45:45.488Z,101139.14
2022-08-06T15:48:05.890Z,101139.85
2022-08-06T15:50:43.078Z,101137.09
2022-08-06T15:53:23.407Z,101143.23
2022-08-06T15:55:53.261Z,101143.98
2022-08-06T15:58:28.431Z,101145.81
2022-08-06T16:01:04.083Z,101149.33
2022-08-06T16:03:56.399Z,101149.33
2022-08-06T16:06:23.713Z,101149.89
2022-08-06T16:08:54.912Z,101153.07
2022-08-06T16:11:48.263Z,101157.11
2022-08-06T16:14:19.556Z,101153.30
2022-08-06T16:16:48.247Z,101153.16
2022-08-06T16:19:21.350Z,101153.58
2022-08-06T16:21:50.261Z,101160.52
2022-08-06T16:24:19.279Z,101156.74
2022-08-06T16:26:57.149Z,101159.04
2022-08-06T16:29:26.687Z,101151.14
2022-08-06T16:31:55.737Z,101151.23
2022-08-06T16:34:30.013Z,101147.77
2022-08-06T16:37:01.041Z,101150.95
2022-08-06T16:39:36.295Z,101153.78
2022-08-06T16:42:07.841Z,101162.33
2022-08-06T16:44:56.683Z,101165.68
2022-08-06T16:50:18.875Z,101162.34
2022-08-06T16:54:14.601Z,101172.41
2022-08-06T16:55:45.228Z,101169.02
2022-08-06T17:02:20.876Z,101165.38
2022-08-06T17:04:00.059Z,101162.15
2022-08-06T17:06:31.412Z,101168.14
2022-08-06T17:09:16.355Z,101164.70
2022-08-06T17:11:57.496Z,101164.27
2022-08-06T17:14:28.213Z,101180.38
2022-08-06T17:17:00.339Z,101179.59
2022-08-06T17:19:30.816Z,101177.83
2022-08-06T17:22:00.637Z,101177.83
2022-08-06T17:27:44.777Z,101178.22
2022-08-06T17:30:12.225Z,101176.59
2022-08-06T17:32:46.472Z,101175.51
2022-08-06T17:35:16.549Z,101181.86
2022-08-06T17:37:49.175Z,101185.13
2022-08-06T17:40:31.444Z,101193.33
2022-08-06T17:43:12.971Z,101191.84
2022-08-06T17:46:00.237Z,101192.04
2022-08-06T17:48:32.572Z,101191.81
2022-08-06T17:51:09.795Z,101188.77
2022-08-06T17:53:52.022Z,101186.75
2022-08-06T17:56:30.471Z,101186.27
2022-08-06T17:59:16.537Z,101193.89
2022-08-06T18:01:49.574Z,101198.98
2022-08-06T18:04:30.772Z,101201.17
2022-08-06T18:07:12.241Z,101206.80
2022-08-06T18:10:10.858Z,101209.25
2022-08-06T18:12:48.569Z,101205.38
2022-08-06T18:15:22.769Z,101207.39
2022-08-06T18:18:03.711Z,101211.98
2022-08-06T18:20:39.408Z,101208.75
2022-08-06T18:23:21.698Z,101209.36
2022-08-06T18:25:57.328Z,101209.68
2022-08-06T18:28:34.587Z,101210.69
2022-08-06T18:31:09.646Z,101212.84
2022-08-06T18:33:46.052Z,101213.81
2022-08-06T18:36:16.669Z,101217.62
2022-08-06T18:38:45.726Z,101218.35
2022-08-06T18:41:16.775Z,101214.42
2022-08-06T18:43:54.514Z,101220.71
2022-08-06T18:46:55.464Z,101218.88
2022-08-06T18:49:20.472Z,101220.56
2022-08-06T18:51:49.362Z,101219.36
2022-08-06T18:54:23.112Z,101219.89
2022-08-06T18:56:53.159Z,101224.29
2022-08-06T18:59:28.649Z,101224.12
2022-08-06T19:01:59.193Z,101229.30
2022-08-06T19:04:29.033Z,101231.17
2022-08-06T19:07:01.029Z,101229.60
2022-08-06T19:09:37.007Z,101231.27
2022-08-06T19:12:13.852Z,101234.77
2022-08-06T19:14:50.624Z,101235.69
2022-08-06T19:18:10.530Z,101238.65
2022-08-06T19:20:20.178Z,101239.61
2022-08-06T19:22:53.390Z,101238.77
2022-08-06T19:25:28.585Z,101236.13
2022-08-06T19:28:35.800Z,101237.77
2022-08-06T19:31:06.214Z,101240.40
2022-08-06T19:33:35.140Z,101239.02
2022-08-06T19:36:09.078Z,101240.46
2022-08-06T19:38:44.324Z,101245.11
2022-08-06T19:41:54.836Z,101245.09
2022-08-06T19:44:26.816Z,101247.86
2022-08-06T19:46:56.722Z,101245.50
2022-08-06T19:49:28.159Z,101242.84
2022-08-06T19:52:10.327Z,101248.77
2022-08-06T19:54:41.957Z,101250.98
2022-08-06T19:57:13.288Z,101248.16
2022-08-06T20:00:54.766Z,101250.98
2022-08-06T20:02:51.315Z,101248.84
2022-08-06T20:06:17.733Z,101252.55
2022-08-06T20:08:32.978Z,101247.05
2022-08-06T20:11:09.540Z,101248.06
2022-08-06T20:13:54.700Z,101243.41
2022-08-06T20:16:23.353Z,101242.17
2022-08-06T20:18:52.177Z,101243.99
2022-08-06T20:21:42.744Z,101247.27
2022-08-06T20:24:09.416Z,101245.06
2022-08-06T20:26:38.179Z,101245.66
2022-08-06T20:29:34.781Z,101243.08
2022-08-06T20:32:16.857Z,101246.70
2022-08-06T20:34:48.251Z,101245.70
2022-08-06T20:37:17.383Z,101247.25
2022-08-06T20:39:48.442Z,101244.77
2022-08-06T20:42:18.799Z,101245.39
2022-08-06T20:44:51.884Z,101241.40
2022-08-06T20:47:46.481Z,101242.21
2022-08-06T20:50:11.928Z,101241.52
2022-08-06T20:52:40.728Z,101244.01
2022-08-06T20:55:13.964Z,101246.00
2022-08-06T20:57:48.543Z,101244.30
2022-08-06T21:00:27.995Z,101244.42
2022-08-06T21:03:28.626Z,101241.73
2022-08-06T21:05:51.100Z,101240.13
2022-08-06T21:08:27.111Z,101243.14
2022-08-06T21:10:58.029Z,101246.87
2022-08-06T21:13:29.730Z,101243.88
2022-08-06T21:16:13.339Z,101245.52
2022-08-06T21:18:44.380Z,101245.23
2022-08-06T21:21:16.961Z,101247.98
2022-08-06T21:23:56.449Z,101246.30
2022-08-06T21:26:34.824Z,101248.67
2022-08-06T21:30:07.300Z,101246.30
2022-08-06T21:31:56.989Z,101251.14
2022-08-06T21:34:27.709Z,101248.61
2022-08-06T21:36:59.139Z,101250.56
2022-08-06T21:39:30.153Z,101252.70
2022-08-06T21:42:17.808Z,101249.25
2022-08-06T21:44:49.524Z,101247.50
2022-08-06T21:47:19.525Z,101246.48
2022-08-06T21:49:59.361Z,101245.40
2022-08-06T21:52:35.798Z,101244.28
2022-08-06T21:55:11.361Z,101247.04
2022-08-06T21:57:47.605Z,101247.58
2022-08-06T22:00:36.848Z,101246.86
2022-08-06T22:04:35.153Z,101245.67
2022-08-06T22:06:22.025Z,101242.98
2022-08-06T22:08:54.295Z,101239.43
2022-08-06T22:12:38.506Z,101240.11
2022-08-06T22:14:15.521Z,101241.15
2022-08-06T22:16:48.807Z,101241.98
2022-08-06T22:19:33.427Z,101243.58
2022-08-06T22:22:07.359Z,101238.78
2022-08-06T22:24:37.832Z,101238.33
2022-08-06T22:27:07.939Z,101248.46
2022-08-06T22:30:00.558Z,101250.66
2022-08-06T22:32:36.278Z,101247.56
2022-08-06T22:35:09.304Z,101250.56
2022-08-06T22:38:17.073Z,101251.14
2022-08-06T22:40:42.284Z,101249.10
2022-08-06T22:43:18.205Z,101250.39
2022-08-06T22:46:02.289Z,101250.41
2022-08-06T22:48:36.488Z,101252.72
2022-08-06T22:51:10.891Z,101254.70
2022-08-06T22:54:29.133Z,101251.98
2022-08-06T22:56:38.246Z,101252.73
2022-08-06T22:59:31.454Z,101254.59
2022-08-06T23:02:06.143Z,101255.88
2022-08-06T23:04:41.523Z,101258.95
2022-08-06T23:07:33.654Z,101255.70
2022-08-06T23:10:06.742Z,101258.98
2022-08-06T23:12:36.703Z,101257.98
2022-08-06T23:15:29.899Z,101257.48
2022-08-06T23:18:00.506Z,101259.11
2022-08-06T23:20:32.746Z,101257.80
2022-08-06T23:23:04.751Z,101259.62
2022-08-06T23:26:00.166Z,101254.47
2022-08-06T23:28:22.986Z,101253.77
2022-08-06T23:30:52.342Z,101255.70
2022-08-06T23:33:20.728Z,101250.91
2022-08-06T23:35:50.733Z,101255.73
2022-08-06T23:38:32.192Z,101253.95
2022-08-06T23:41:05.151Z,101254.08
2022-08-06T23:43:49.533Z,101251.81
2022-08-06T23:46:19.706Z,101256.32
2022-08-06T23:48:56.699Z,101253.38
2022-08-06T23:52:01.840Z,101252.55
2022-08-06T23:54:23.388Z,101249.10
2022-08-06T23:56:57.837Z,101246.89
2022-08-06T23:59:44.513Z,101249.35
